Time;durP1;ratioP1;P1;durP2;ratioP2;P2;SDS_P1;SDS_P2;PMS_P1;PMS_P2;Temp;Humidity;BMP_temperature;BMP_pressure;BME280_temperature;BME280_humidity;BME280_pressure;Samples;Min_cycle;Max_cycle;Signal;HPM_P1;HPM_P2
2022/07/21 00:00:33;;;;;;;5.93;5.53;;;21.60;99.90;;;;;;5092451;28;20547;-77
2022/07/21 00:02:59;;;;;;;7.90;6.20;;;21.60;99.90;;;;;;5092054;28;20016;-75
2022/07/21 00:05:26;;;;;;;5.80;5.30;;;21.60;99.90;;;;;;5092278;28;20093;-76
2022/07/21 00:07:52;;;;;;;7.13;6.53;;;21.50;99.90;;;;;;5092651;28;20066;-76
2022/07/21 00:10:19;;;;;;;6.80;6.20;;;21.50;99.90;;;;;;5091690;28;20097;-75
2022/07/21 00:12:45;;;;;;;6.20;5.70;;;21.50;99.90;;;;;;5092766;28;20103;-76
2022/07/21 00:15:12;;;;;;;6.55;6.00;;;21.50;99.90;;;;;;5092443;28;20127;-76
2022/07/21 00:17:38;;;;;;;9.32;6.05;;;21.40;99.90;;;;;;5091777;28;20065;-76
2022/07/21 00:20:06;;;;;;;8.88;6.50;;;21.50;99.90;;;;;;5092269;28;20016;-75
2022/07/21 00:22:32;;;;;;;8.57;7.80;;;21.40;99.90;;;;;;5091512;28;20020;-76
2022/07/21 00:24:58;;;;;;;7.65;7.05;;;21.50;99.90;;;;;;5092132;28;20107;-76
2022/07/21 00:27:24;;;;;;;7.70;7.00;;;21.40;99.90;;;;;;5092792;28;20048;-76
2022/07/21 00:29:50;;;;;;;7.80;7.10;;;21.40;99.90;;;;;;5091980;28;20497;-76
2022/07/21 00:32:16;;;;;;;6.80;6.30;;;21.40;99.90;;;;;;5077949;28;20058;-76
2022/07/21 00:34:41;;;;;;;8.98;7.53;;;21.40;99.90;;;;;;5093012;28;20024;-77
2022/07/21 00:37:07;;;;;;;8.30;7.60;;;21.40;99.90;;;;;;5090764;28;20681;-75
2022/07/21 00:39:32;;;;;;;8.57;7.43;;;21.30;99.90;;;;;;5093287;28;20031;-75
2022/07/21 00:41:58;;;;;;;8.02;7.30;;;21.40;99.90;;;;;;5093321;28;20020;-75
2022/07/21 00:44:26;;;;;;;7.47;6.72;;;21.40;99.90;;;;;;5092664;28;20111;-75
2022/07/21 00:46:52;;;;;;;8.48;7.63;;;21.40;99.90;;;;;;5094141;28;20035;-76
2022/07/21 00:49:19;;;;;;;8.70;7.75;;;21.30;99.90;;;;;;5094080;28;20013;-76
2022/07/21 00:51:46;;;;;;;8.10;7.35;;;21.30;99.90;;;;;;5081424;28;20051;-75
2022/07/21 00:54:14;;;;;;;8.85;8.05;;;21.30;99.90;;;;;;5088704;28;20020;-75
2022/07/21 00:56:39;;;;;;;8.10;7.50;;;21.30;99.90;;;;;;5092936;28;20356;-76
2022/07/21 00:59:05;;;;;;;7.97;7.35;;;21.30;99.90;;;;;;5093182;28;20114;-76
2022/07/21 01:01:31;;;;;;;8.60;7.80;;;21.30;99.90;;;;;;5103193;28;20032;-76
2022/07/21 01:03:57;;;;;;;9.13;8.20;;;21.30;99.90;;;;;;5092148;28;20475;-76
2022/07/21 01:06:25;;;;;;;8.98;8.18;;;21.30;99.90;;;;;;5091579;28;20024;-75
2022/07/21 01:08:51;;;;;;;10.30;9.30;;;21.20;99.90;;;;;;5091681;28;20024;-75
2022/07/21 01:11:18;;;;;;;10.52;9.52;;;21.20;99.90;;;;;;5091014;28;20055;-76
2022/07/21 01:13:44;;;;;;;11.88;10.75;;;21.20;99.90;;;;;;5091517;28;20028;-76
2022/07/21 01:16:10;;;;;;;12.57;11.32;;;21.30;99.90;;;;;;5091479;28;20024;-75
2022/07/21 01:18:36;;;;;;;12.55;11.25;;;21.30;99.90;;;;;;5091147;28;20425;-75
2022/07/21 01:21:04;;;;;;;13.60;12.20;;;21.20;99.90;;;;;;5090468;28;20107;-75
2022/07/21 01:23:31;;;;;;;11.95;10.75;;;21.20;99.90;;;;;;5073871;28;20032;-76
2022/07/21 01:25:56;;;;;;;11.85;10.85;;;21.20;99.90;;;;;;5090735;28;20024;-75
2022/07/21 01:28:22;;;;;;;11.43;10.52;;;21.20;99.90;;;;;;5091281;28;20042;-75
2022/07/21 01:30:47;;;;;;;12.98;11.88;;;21.10;99.90;;;;;;5085427;28;20051;-75
2022/07/21 01:33:13;;;;;;;13.30;12.02;;;21.00;99.90;;;;;;5083717;28;20543;-77
2022/07/21 01:35:38;;;;;;;12.35;11.15;;;21.10;99.90;;;;;;5095373;28;20028;-75
2022/07/21 01:41:28;;;;;;;13.10;10.75;;;21.00;99.90;;;;;;5095576;28;20022;-75
2022/07/21 01:41:41;;;;;;;12.52;11.35;;;21.00;99.90;;;;;;5094120;28;20177;-75
2022/07/21 01:43:47;;;;;;;12.43;11.30;;;21.00;99.90;;;;;;5092996;28;20039;-74
2022/07/21 01:46:13;;;;;;;11.60;10.55;;;20.90;99.90;;;;;;5099525;28;20044;-75
2022/07/21 01:48:43;;;;;;;13.10;12.00;;;20.90;99.90;;;;;;5100645;28;20036;-76
2022/07/21 01:51:09;;;;;;;;;;;20.90;99.90;;;;;;5082933;28;20043;-78
2022/07/21 01:53:36;;;;;;;12.15;10.95;;;20.80;99.90;;;;;;5084308;28;19908;-76
2022/07/21 01:56:01;;;;;;;14.02;12.65;;;20.80;99.90;;;;;;5078664;28;20027;-76
2022/07/21 01:58:27;;;;;;;13.95;12.65;;;20.80;99.90;;;;;;5095900;28;20024;-76
2022/07/21 02:00:52;;;;;;;13.45;12.13;;;20.80;99.90;;;;;;5093675;28;20089;-75
2022/07/21 02:03:18;;;;;;;14.15;12.75;;;20.50;99.90;;;;;;5095695;28;20474;-75
2022/07/21 02:05:43;;;;;;;14.70;13.27;;;20.70;99.90;;;;;;5096419;28;20042;-76
2022/07/21 02:08:10;;;;;;;14.48;13.18;;;20.70;99.90;;;;;;5094610;28;20028;-76
2022/07/21 02:10:36;;;;;;;14.80;13.30;;;20.70;99.90;;;;;;5093953;28;20383;-76
2022/07/21 02:13:03;;;;;;;14.68;13.18;;;20.60;99.90;;;;;;5095208;28;20073;-75
2022/07/21 02:15:29;;;;;;;14.30;12.93;;;20.60;99.90;;;;;;5095606;28;20081;-74
2022/07/21 02:17:55;;;;;;;16.15;14.50;;;20.60;99.90;;;;;;5094729;28;20028;-76
2022/07/21 02:20:21;;;;;;;15.70;13.93;;;20.40;99.90;;;;;;5095411;28;20031;-76
2022/07/21 02:22:47;;;;;;;15.60;14.15;;;20.50;99.90;;;;;;5079057;28;20012;-74
2022/07/21 02:25:13;;;;;;;15.45;13.98;;;20.50;99.90;;;;;;5091302;28;20107;-75
2022/07/21 02:27:39;;;;;;;14.35;13.13;;;20.50;99.90;;;;;;5090628;28;20111;-75
2022/07/21 02:30:05;;;;;;;14.80;13.25;;;20.40;99.90;;;;;;5081188;28;20036;-75
2022/07/21 02:32:31;;;;;;;18.13;13.38;;;20.40;99.90;;;;;;5083805;28;20073;-75
2022/07/21 02:34:56;;;;;;;15.63;13.93;;;20.40;99.90;;;;;;5094944;28;20020;-76
2022/07/21 02:37:22;;;;;;;14.02;12.57;;;20.40;99.90;;;;;;5094691;28;20467;-75
2022/07/21 02:39:48;;;;;;;14.38;13.02;;;20.40;99.90;;;;;;5080685;28;20021;-75
2022/07/21 02:42:14;;;;;;;16.55;14.68;;;20.40;99.90;;;;;;5094223;28;20113;-76
2022/07/21 02:44:40;;;;;;;14.43;13.13;;;20.50;99.90;;;;;;5093705;28;20463;-76
2022/07/21 02:47:05;;;;;;;14.40;12.80;;;20.50;99.90;;;;;;5095239;28;20028;-75
2022/07/21 02:49:31;;;;;;;17.13;13.63;;;20.60;99.90;;;;;;5095440;28;20471;-75
2022/07/21 02:51:57;;;;;;;15.15;13.32;;;20.60;99.90;;;;;;5096111;28;20048;-75
2022/07/21 02:54:22;;;;;;;14.82;13.02;;;20.60;99.90;;;;;;5095189;28;20028;-75
2022/07/21 02:56:48;;;;;;;14.27;12.80;;;20.60;99.90;;;;;;5080683;28;20349;-75
2022/07/21 02:59:14;;;;;;;15.85;13.90;;;20.60;99.90;;;;;;5092659;28;20052;-74
2022/07/21 03:01:39;;;;;;;16.13;14.48;;;20.60;99.90;;;;;;5094572;28;20410;-76
2022/07/21 03:04:05;;;;;;;14.85;13.35;;;20.60;99.90;;;;;;5095064;28;20032;-75
2022/07/21 03:06:31;;;;;;;15.10;13.57;;;20.60;99.90;;;;;;5094827;28;20375;-76
2022/07/21 03:08:56;;;;;;;15.48;12.88;;;20.60;99.90;;;;;;5094141;28;20073;-76
2022/07/21 03:11:22;;;;;;;16.52;14.80;;;20.60;99.90;;;;;;5092770;28;20048;-74
2022/07/21 03:13:48;;;;;;;14.60;13.10;;;20.60;99.90;;;;;;5093877;28;20020;-76
2022/07/21 03:16:13;;;;;;;16.27;14.10;;;20.50;99.90;;;;;;5094081;28;20032;-76
2022/07/21 03:18:39;;;;;;;16.27;14.73;;;20.50;99.90;;;;;;5093461;28;20027;-75
2022/07/21 03:21:05;;;;;;;15.45;13.75;;;20.50;99.90;;;;;;5093706;28;20072;-76
2022/07/21 03:23:30;;;;;;;15.82;14.20;;;20.40;99.90;;;;;;5094206;28;20026;-76
2022/07/21 03:25:59;;;;;;;17.65;15.45;;;20.40;99.90;;;;;;5092896;28;20048;-76
2022/07/21 03:28:24;;;;;;;15.93;14.23;;;20.30;99.90;;;;;;5094279;28;20024;-75
2022/07/21 03:30:50;;;;;;;15.82;14.25;;;20.30;99.90;;;;;;5080770;28;20082;-76
2022/07/21 03:33:16;;;;;;;17.23;14.93;;;20.30;99.90;;;;;;5091528;28;20020;-76
2022/07/21 03:35:42;;;;;;;16.13;14.45;;;20.20;99.90;;;;;;5095001;28;20044;-76
2022/07/21 03:38:08;;;;;;;16.45;14.38;;;20.20;99.90;;;;;;5101221;28;20025;-74
2022/07/21 03:40:35;;;;;;;16.33;14.38;;;20.20;99.90;;;;;;5084538;28;20078;-75
2022/07/21 03:43:05;;;;;;;18.67;15.35;;;20.20;99.90;;;;;;5087088;28;20020;-76
2022/07/21 03:45:32;;;;;;;16.55;14.95;;;20.10;99.90;;;;;;5092930;28;20040;-75
2022/07/21 03:48:00;;;;;;;17.27;15.25;;;20.10;99.90;;;;;;5095226;28;20028;-76
2022/07/21 03:50:25;;;;;;;17.58;15.60;;;20.10;99.90;;;;;;5095391;28;20032;-76
2022/07/21 03:52:51;;;;;;;17.63;15.90;;;20.10;99.90;;;;;;5093166;28;20027;-75
2022/07/21 03:55:18;;;;;;;22.83;17.05;;;20.00;99.90;;;;;;5091752;28;20027;-74
2022/07/21 03:57:48;;;;;;;20.20;18.15;;;20.00;99.90;;;;;;5092479;28;20027;-75
2022/07/21 04:00:17;;;;;;;19.38;16.60;;;20.10;99.90;;;;;;5092852;28;20036;-76
2022/07/21 04:02:44;;;;;;;18.83;15.75;;;20.10;99.90;;;;;;5092115;28;20033;-76
2022/07/21 04:05:11;;;;;;;18.88;16.92;;;20.10;99.90;;;;;;5092656;28;20133;-76
2022/07/21 04:07:39;;;;;;;20.83;18.25;;;20.10;99.90;;;;;;5091511;28;20012;-76
2022/07/21 04:10:05;;;;;;;17.58;15.80;;;20.10;99.90;;;;;;5092331;28;20052;-76
2022/07/21 04:12:31;;;;;;;18.95;16.95;;;20.10;99.90;;;;;;5092075;28;20078;-75
2022/07/21 04:14:56;;;;;;;20.50;18.33;;;20.20;99.90;;;;;;5091659;28;20038;-75
2022/07/21 04:17:22;;;;;;;20.17;17.55;;;20.20;99.90;;;;;;5092039;28;20051;-75
2022/07/21 04:19:48;;;;;;;19.20;17.17;;;20.20;99.90;;;;;;5092049;28;20026;-75
2022/07/21 04:22:13;;;;;;;20.40;18.27;;;20.30;99.90;;;;;;5091155;28;20402;-76
2022/07/21 04:24:39;;;;;;;19.73;17.73;;;20.30;99.90;;;;;;5092428;28;20024;-76
2022/07/21 04:27:04;;;;;;;21.55;17.50;;;20.30;99.90;;;;;;5091956;28;20099;-75
2022/07/21 04:29:33;;;;;;;19.95;17.33;;;20.30;99.90;;;;;;5090207;28;20024;-76
2022/07/21 04:31:59;;;;;;;20.98;17.48;;;20.30;99.90;;;;;;5079086;28;20081;-76
2022/07/21 04:34:25;;;;;;;20.85;16.23;;;20.30;99.90;;;;;;5092551;28;20024;-76
2022/07/21 04:36:50;;;;;;;18.90;16.75;;;20.40;99.90;;;;;;5091385;28;20389;-76
2022/07/21 04:39:16;;;;;;;19.98;16.77;;;20.30;99.90;;;;;;5092389;28;20102;-76
2022/07/21 04:41:41;;;;;;;18.13;16.33;;;20.40;99.90;;;;;;5092049;28;20012;-76
2022/07/21 04:44:07;;;;;;;20.25;15.45;;;20.40;99.90;;;;;;5091221;28;20428;-75
2022/07/21 04:46:33;;;;;;;17.25;15.50;;;20.40;99.90;;;;;;5092380;28;20125;-75
2022/07/21 04:48:58;;;;;;;17.73;14.63;;;20.40;99.90;;;;;;5091247;28;20024;-76
2022/07/21 04:51:24;;;;;;;21.17;17.02;;;20.50;99.90;;;;;;5090734;28;20081;-75
2022/07/21 04:53:49;;;;;;;16.45;14.38;;;20.50;99.90;;;;;;5092137;28;20035;-76
2022/07/21 04:56:15;;;;;;;16.42;14.50;;;20.60;99.90;;;;;;5091916;28;20094;-76
2022/07/21 04:58:40;;;;;;;18.23;15.30;;;20.50;99.90;;;;;;5090501;28;20023;-76
2022/07/21 05:01:06;;;;;;;17.55;14.27;;;20.60;99.90;;;;;;5090963;28;20111;-75
2022/07/21 05:03:31;;;;;;;20.98;16.20;;;20.60;99.90;;;;;;5085258;28;20380;-75
2022/07/21 05:05:57;;;;;;;21.92;16.10;;;20.70;99.90;;;;;;5076323;28;20108;-75
2022/07/21 05:08:22;;;;;;;24.23;15.77;;;20.70;99.90;;;;;;5074631;28;20024;-75
2022/07/21 05:10:48;;;;;;;22.15;16.17;;;20.70;99.90;;;;;;5076358;28;20131;-75
2022/07/21 05:13:14;;;;;;;18.40;14.93;;;20.80;99.90;;;;;;5074930;28;20074;-76
2022/07/21 05:15:39;;;;;;;20.35;14.93;;;20.70;99.90;;;;;;5074266;28;20475;-74
2022/07/21 05:18:07;;;;;;;23.50;15.20;;;20.70;99.90;;;;;;5073282;28;20043;-74
2022/07/21 05:20:37;;;;;;;21.63;14.48;;;20.70;99.90;;;;;;5073521;28;20033;-76
2022/07/21 05:23:03;;;;;;;21.05;15.75;;;20.70;99.90;;;;;;5075345;28;20028;-76
2022/07/21 05:25:31;;;;;;;23.15;16.73;;;20.70;99.90;;;;;;5077530;28;20031;-77
2022/07/21 05:27:57;;;;;;;19.15;15.45;;;20.50;99.90;;;;;;5076723;28;20028;-75
2022/07/21 05:30:23;;;;;;;19.63;14.82;;;20.70;99.90;;;;;;5076798;28;20585;-74
2022/07/21 05:32:48;;;;;;;21.88;15.95;;;20.70;99.90;;;;;;5078510;28;20020;-73
2022/07/21 05:35:15;;;;;;;22.95;15.93;;;20.70;99.90;;;;;;5087567;28;20079;-75
2022/07/21 05:37:41;;;;;;;23.70;17.05;;;20.70;99.90;;;;;;5074172;28;20016;-74
2022/07/21 05:40:08;;;;;;;27.60;17.60;;;20.70;99.90;;;;;;5073188;28;20028;-75
2022/07/21 05:42:33;;;;;;;28.88;17.38;;;20.80;99.90;;;;;;5079535;28;20020;-75
2022/07/21 05:45:00;;;;;;;22.70;17.23;;;20.70;99.90;;;;;;5075794;28;20047;-74
2022/07/21 05:47:25;;;;;;;28.80;16.33;;;20.80;99.90;;;;;;5076194;28;20383;-75
2022/07/21 05:49:51;;;;;;;23.92;16.88;;;20.80;99.90;;;;;;5082391;28;20491;-74
2022/07/21 05:52:16;;;;;;;23.08;15.48;;;20.80;99.90;;;;;;5076469;28;20416;-75
2022/07/21 05:54:42;;;;;;;27.20;15.43;;;20.80;99.90;;;;;;5073268;28;20547;-74
2022/07/21 05:57:07;;;;;;;18.52;14.43;;;20.90;99.90;;;;;;5073696;28;20052;-75
2022/07/21 05:59:33;;;;;;;26.90;16.27;;;20.80;99.90;;;;;;5082879;28;20020;-74
2022/07/21 06:01:58;;;;;;;20.35;16.33;;;20.90;99.90;;;;;;5072446;28;20020;-74
2022/07/21 06:04:25;;;;;;;23.60;15.27;;;20.80;99.90;;;;;;5085528;28;20039;-75
2022/07/21 06:06:52;;;;;;;29.63;18.33;;;20.80;99.90;;;;;;5074079;28;20573;-75
2022/07/21 06:09:18;;;;;;;25.65;16.65;;;20.90;99.90;;;;;;5076351;28;20032;-76
2022/07/21 06:11:44;;;;;;;26.85;17.88;;;20.80;99.90;;;;;;5074879;28;20048;-75
2022/07/21 06:14:09;;;;;;;24.27;17.50;;;20.80;99.90;;;;;;5072677;28;20044;-77
2022/07/21 06:16:35;;;;;;;32.78;19.25;;;20.80;99.90;;;;;;5076457;28;20375;-73
2022/07/21 06:19:01;;;;;;;23.50;17.25;;;20.80;99.90;;;;;;5073370;28;20060;-75
2022/07/21 06:21:27;;;;;;;28.65;18.13;;;20.80;99.90;;;;;;5075069;28;20016;-76
2022/07/21 06:23:53;;;;;;;32.95;19.67;;;20.80;99.90;;;;;;5072476;28;20521;-76
2022/07/21 06:26:19;;;;;;;37.30;19.75;;;20.80;99.90;;;;;;5073525;28;20021;-75
2022/07/21 06:28:44;;;;;;;26.55;21.02;;;20.80;99.90;;;;;;5072553;28;20021;-74
2022/07/21 06:31:10;;;;;;;32.55;22.23;;;20.90;99.90;;;;;;5072054;28;20376;-75
2022/07/21 06:33:36;;;;;;;33.33;21.45;;;20.90;99.90;;;;;;5073457;28;20379;-75
2022/07/21 06:36:01;;;;;;;39.17;21.42;;;20.90;99.90;;;;;;5073361;28;20086;-75
2022/07/21 06:38:27;;;;;;;32.35;20.85;;;20.90;99.90;;;;;;5073110;28;20414;-76
2022/07/21 06:40:53;;;;;;;35.72;21.73;;;20.90;99.90;;;;;;5077735;28;20127;-75
2022/07/21 06:43:19;;;;;;;28.13;19.10;;;20.90;99.90;;;;;;5072662;28;20044;-74
2022/07/21 06:45:44;;;;;;;38.90;21.73;;;20.90;99.90;;;;;;5072460;28;20028;-74
2022/07/21 06:48:10;;;;;;;36.03;22.65;;;20.80;99.90;;;;;;5074337;28;20031;-77
2022/07/21 06:50:36;;;;;;;40.83;22.15;;;20.80;99.90;;;;;;5071159;28;20033;-76
2022/07/21 06:53:03;;;;;;;38.15;23.08;;;20.90;99.90;;;;;;5072108;28;20325;-75
2022/07/21 06:55:29;;;;;;;30.52;22.95;;;20.90;99.90;;;;;;5074602;28;20021;-75
2022/07/21 06:57:54;;;;;;;32.17;20.42;;;20.90;99.90;;;;;;5074366;28;20780;-75
2022/07/21 07:00:20;;;;;;;39.78;22.05;;;20.90;99.90;;;;;;5072820;28;20025;-75
2022/07/21 07:02:46;;;;;;;27.75;19.88;;;20.90;99.90;;;;;;5072847;28;20028;-74
2022/07/21 07:05:12;;;;;;;29.65;20.20;;;21.00;99.90;;;;;;5071295;28;20021;-75
2022/07/21 07:07:38;;;;;;;25.60;19.95;;;20.90;99.90;;;;;;5073529;28;20058;-76
2022/07/21 07:10:04;;;;;;;29.15;19.70;;;21.00;99.90;;;;;;5071754;28;20060;-76
2022/07/21 07:12:30;;;;;;;27.50;20.02;;;20.90;99.90;;;;;;5074564;28;20107;-75
2022/07/21 07:14:56;;;;;;;33.22;20.58;;;20.90;99.90;;;;;;5072578;28;20032;-77
2022/07/21 07:17:21;;;;;;;25.05;19.65;;;20.90;99.90;;;;;;5073334;28;20020;-75
2022/07/21 07:19:48;;;;;;;33.03;20.77;;;20.80;99.90;;;;;;5077336;28;20052;-76
2022/07/21 07:22:14;;;;;;;33.13;21.38;;;20.80;99.90;;;;;;5073124;28;20035;-76
2022/07/21 07:24:40;;;;;;;28.27;20.77;;;20.80;99.90;;;;;;5073632;28;20020;-77
2022/07/21 07:27:05;;;;;;;30.50;20.30;;;20.70;99.90;;;;;;5073422;28;20067;-78
2022/07/21 07:29:31;;;;;;;27.73;19.67;;;20.60;99.90;;;;;;5074725;28;20375;-76
2022/07/21 07:31:58;;;;;;;24.30;20.10;;;20.50;99.90;;;;;;5079688;28;20034;-78
2022/07/21 07:34:24;;;;;;;24.98;19.33;;;20.60;99.90;;;;;;5095113;28;20021;-77
2022/07/21 07:36:50;;;;;;;29.17;20.92;;;20.50;99.90;;;;;;5078700;28;20112;-74
2022/07/21 07:39:15;;;;;;;32.67;18.35;;;20.50;99.90;;;;;;5093192;28;20066;-76
2022/07/21 07:41:42;;;;;;;24.50;16.40;;;20.40;99.90;;;;;;5092860;28;20064;-73
2022/07/21 07:44:08;;;;;;;20.50;16.38;;;20.30;99.90;;;;;;5093373;28;20081;-73
2022/07/21 07:46:34;;;;;;;20.55;14.52;;;20.30;99.90;;;;;;5076210;28;20410;-74
2022/07/21 07:48:59;;;;;;;16.13;13.00;;;20.30;99.90;;;;;;5080788;28;20532;-74
2022/07/21 07:51:25;;;;;;;14.73;11.73;;;20.30;99.90;;;;;;5075499;28;20482;-73
2022/07/21 07:53:51;;;;;;;13.57;8.73;;;20.30;99.90;;;;;;5071742;28;20028;-74
2022/07/21 07:56:17;;;;;;;7.40;6.57;;;20.20;99.90;;;;;;5089496;28;20024;-73
2022/07/21 07:58:42;;;;;;;8.65;6.38;;;20.30;99.90;;;;;;5094761;28;20066;-74
2022/07/21 08:01:09;;;;;;;7.85;7.05;;;20.20;99.90;;;;;;5102035;28;20432;-73
2022/07/21 08:03:35;;;;;;;7.63;6.85;;;20.20;99.90;;;;;;5086580;28;20029;-73
2022/07/21 08:06:03;;;;;;;7.70;6.88;;;20.10;99.90;;;;;;5086908;28;20029;-74
2022/07/21 08:08:29;;;;;;;6.72;6.13;;;20.10;99.90;;;;;;5083449;28;20023;-73
2022/07/21 08:10:55;;;;;;;7.15;6.35;;;20.10;99.90;;;;;;5084915;28;20071;-73
2022/07/21 08:13:21;;;;;;;6.78;6.07;;;20.10;99.90;;;;;;5083054;28;20052;-73
2022/07/21 08:15:48;;;;;;;6.85;5.47;;;20.10;99.90;;;;;;5082099;28;20028;-73
2022/07/21 08:18:13;;;;;;;6.90;5.03;;;20.10;99.90;;;;;;5090294;28;20025;-73
2022/07/21 08:20:39;;;;;;;6.13;5.50;;;20.00;99.90;;;;;;5076481;28;20037;-73
2022/07/21 08:23:05;;;;;;;5.65;5.15;;;20.00;99.90;;;;;;5068932;28;20056;-73
2022/07/21 08:25:31;;;;;;;6.07;5.47;;;20.00;99.90;;;;;;5074541;28;20048;-74
2022/07/21 08:27:57;;;;;;;8.00;5.90;;;19.90;99.90;;;;;;5067411;28;20044;-74
2022/07/21 08:30:23;;;;;;;6.50;5.93;;;19.90;99.90;;;;;;5069502;28;20027;-70
2022/07/21 08:32:48;;;;;;;6.47;5.05;;;19.90;99.90;;;;;;5070292;28;20371;-71
2022/07/21 08:35:14;;;;;;;7.68;5.65;;;19.90;99.90;;;;;;5070335;28;20044;-72
2022/07/21 08:37:40;;;;;;;5.78;5.28;;;19.90;99.90;;;;;;5072103;28;20399;-72
2022/07/21 08:40:09;;;;;;;8.23;5.68;;;19.90;99.90;;;;;;5071033;28;20117;-72
2022/07/21 08:42:35;;;;;;;6.47;5.85;;;20.00;99.90;;;;;;5070771;28;20025;-72
2022/07/21 08:45:04;;;;;;;6.20;5.70;;;20.00;99.90;;;;;;5069784;28;20039;-71
2022/07/21 08:47:31;;;;;;;6.40;5.88;;;20.00;99.90;;;;;;5080431;28;20116;-71
2022/07/21 08:49:57;;;;;;;7.22;6.07;;;20.00;99.90;;;;;;5072246;28;20028;-71
2022/07/21 08:52:23;;;;;;;9.70;6.80;;;20.00;99.90;;;;;;5079319;28;20070;-71
2022/07/21 08:54:49;;;;;;;8.02;7.22;;;20.10;99.90;;;;;;5073801;28;20013;-71
2022/07/21 08:57:15;;;;;;;8.20;7.40;;;20.20;99.90;;;;;;5068708;28;20039;-71
2022/07/21 08:59:41;;;;;;;11.10;7.85;;;20.30;99.90;;;;;;5067952;28;20024;-70
2022/07/21 09:02:28;;;;;;;9.18;7.60;;;20.20;99.90;;;;;;5069994;28;20391;-71
2022/07/21 09:04:54;;;;;;;8.95;7.95;;;20.30;99.90;;;;;;5069128;28;20013;-72
2022/07/21 09:07:22;;;;;;;9.77;8.85;;;20.20;99.90;;;;;;5071532;28;20123;-71
2022/07/21 09:09:58;;;;;;;12.00;8.82;;;20.20;99.90;;;;;;5070628;28;20036;-71
2022/07/21 09:12:25;;;;;;;10.00;8.75;;;20.20;99.90;;;;;;5052478;28;20024;-72
2022/07/21 09:14:50;;;;;;;12.95;8.45;;;20.20;99.90;;;;;;5070507;28;20424;-71
2022/07/21 09:17:18;;;;;;;12.48;8.07;;;20.20;99.90;;;;;;5069153;28;20044;-71
2022/07/21 09:19:46;;;;;;;11.40;7.72;;;20.20;99.90;;;;;;5070663;28;20037;-71
2022/07/21 09:22:16;;;;;;;9.27;7.88;;;20.10;99.90;;;;;;5069579;28;20066;-70
2022/07/21 09:24:52;;;;;;;9.05;7.63;;;20.00;99.90;;;;;;5069970;28;20051;-71
2022/07/21 09:27:26;;;;;;;13.60;8.90;;;19.90;99.90;;;;;;5070208;28;20390;-71
2022/07/21 09:29:55;;;;;;;10.38;9.00;;;19.80;99.90;;;;;;5069356;28;20108;-71
2022/07/21 09:32:36;;;;;;;10.95;9.77;;;19.70;99.90;;;;;;5068530;28;20108;-68
2022/07/21 09:35:06;;;;;;;13.50;10.30;;;19.50;99.90;;;;;;5091535;28;20088;-69
2022/07/21 09:37:32;;;;;;;14.68;10.48;;;19.50;99.90;;;;;;5085518;28;20119;-72
2022/07/21 09:40:05;;;;;;;15.52;10.40;;;19.40;99.90;;;;;;5084782;28;20020;-71
2022/07/21 09:42:33;;;;;;;17.75;11.10;;;19.30;99.90;;;;;;5085185;28;20386;-72
2022/07/21 09:45:01;;;;;;;17.92;11.55;;;19.30;99.90;;;;;;5082783;28;20028;-69
2022/07/21 09:47:29;;;;;;;17.13;9.38;;;19.20;99.90;;;;;;5081511;28;20524;-72
2022/07/21 09:49:57;;;;;;;16.88;9.65;;;19.10;99.90;;;;;;5083799;28;20105;-71
2022/07/21 09:52:30;;;;;;;16.55;9.98;;;19.10;99.90;;;;;;5067576;28;20028;-72
2022/07/21 09:55:01;;;;;;;16.42;9.40;;;19.10;99.90;;;;;;5070708;28;20036;-72
2022/07/21 09:57:28;;;;;;;17.52;10.90;;;19.00;99.90;;;;;;5075492;28;20020;-72
2022/07/21 09:59:54;;;;;;;18.77;10.30;;;19.10;99.90;;;;;;5079791;28;20032;-71
2022/07/21 10:02:25;;;;;;;11.75;8.98;;;19.10;99.90;;;;;;5073112;28;20031;-71
2022/07/21 10:04:59;;;;;;;10.38;9.18;;;19.10;99.90;;;;;;5073589;28;20368;-71
2022/07/21 10:07:26;;;;;;;9.18;8.30;;;19.10;99.90;;;;;;5072641;28;20013;-69
2022/07/21 10:09:53;;;;;;;9.00;8.10;;;19.10;99.90;;;;;;5080458;28;20052;-71
2022/07/21 10:12:18;;;;;;;7.88;7.15;;;19.10;99.90;;;;;;5071359;28;20074;-71
2022/07/21 10:14:46;;;;;;;10.75;7.32;;;19.20;99.90;;;;;;5071994;28;20036;-71
2022/07/21 10:17:15;;;;;;;7.65;6.90;;;19.20;99.90;;;;;;5075816;28;20043;-70
2022/07/21 10:19:53;;;;;;;11.40;7.07;;;19.20;99.90;;;;;;5073533;28;20128;-72
2022/07/21 10:22:30;;;;;;;8.13;6.40;;;19.30;99.90;;;;;;5072972;28;20025;-72
2022/07/21 10:24:57;;;;;;;9.50;7.05;;;19.30;99.90;;;;;;5073337;28;20025;-72
2022/07/21 10:27:23;;;;;;;6.82;6.22;;;19.40;99.90;;;;;;5073552;28;20107;-71
2022/07/21 10:29:56;;;;;;;6.35;5.75;;;19.40;99.90;;;;;;5074518;28;20100;-71
2022/07/21 10:32:26;;;;;;;5.30;4.90;;;19.40;99.90;;;;;;5085100;28;20024;-71
2022/07/21 10:34:53;;;;;;;8.07;6.20;;;19.40;99.90;;;;;;5093228;28;20394;-71
2022/07/21 10:37:40;;;;;;;7.18;6.47;;;19.40;99.90;;;;;;5094566;28;20028;-71
2022/07/21 10:40:26;;;;;;;7.68;7.00;;;19.40;99.90;;;;;;5094190;28;20032;-71
2022/07/21 10:43:01;;;;;;;7.05;6.10;;;19.50;99.90;;;;;;5093648;28;20027;-67
2022/07/21 10:45:31;;;;;;;6.07;5.55;;;19.70;99.90;;;;;;5080183;28;20088;-71
2022/07/21 10:47:57;;;;;;;5.53;4.97;;;19.80;99.90;;;;;;5092559;28;20032;-71
2022/07/21 10:50:37;;;;;;;4.82;4.43;;;19.90;99.90;;;;;;5075820;28;20071;-71
2022/07/21 10:53:05;;;;;;;3.60;3.30;;;20.00;99.90;;;;;;5073983;28;20090;-71
2022/07/21 10:55:35;;;;;;;3.22;2.70;;;20.00;99.90;;;;;;5072886;28;20025;-71
2022/07/21 10:58:23;;;;;;;3.50;3.30;;;19.90;99.90;;;;;;5073462;28;20047;-71
2022/07/21 11:01:18;;;;;;;4.13;3.80;;;19.90;99.90;;;;;;5093464;28;20035;-71
2022/07/21 11:03:45;;;;;;;7.53;3.50;;;19.70;99.90;;;;;;5090565;28;20399;-71
2022/07/21 11:06:24;;;;;;;3.58;3.28;;;19.60;99.90;;;;;;5087167;28;20020;-71
2022/07/21 11:09:23;;;;;;;4.43;3.80;;;19.60;99.90;;;;;;5089049;28;20051;-71
2022/07/21 11:12:03;;;;;;;3.85;3.45;;;19.60;99.90;;;;;;5071323;28;20556;-72
2022/07/21 11:14:37;;;;;;;4.73;3.70;;;19.60;99.90;;;;;;5072953;28;20024;-71
2022/07/21 11:17:04;;;;;;;3.72;3.38;;;19.60;99.90;;;;;;5071155;28;20442;-71
2022/07/21 11:19:40;;;;;;;3.10;2.80;;;19.70;99.90;;;;;;5073361;28;20459;-70
2022/07/21 11:22:17;;;;;;;3.38;3.13;;;19.70;99.90;;;;;;5073018;28;20039;-71
2022/07/21 11:25:05;;;;;;;4.15;3.75;;;19.90;99.90;;;;;;5072609;28;20013;-71
2022/07/21 11:27:34;;;;;;;6.18;3.75;;;19.90;99.90;;;;;;5072238;28;20028;-71
2022/07/21 11:30:02;;;;;;;4.72;2.92;;;19.80;99.90;;;;;;5075672;28;20069;-73
2022/07/21 11:32:28;;;;;;;3.45;3.15;;;19.80;99.90;;;;;;5092583;28;20024;-71
2022/07/21 11:34:56;;;;;;;4.15;2.97;;;19.80;99.90;;;;;;5093158;28;20027;-72
2022/07/21 11:37:28;;;;;;;4.72;2.78;;;19.70;99.90;;;;;;5092875;28;20032;-71
2022/07/21 11:39:53;;;;;;;3.45;3.00;;;19.70;99.90;;;;;;5074007;28;20021;-70
2022/07/21 11:42:20;;;;;;;5.60;3.83;;;19.70;99.90;;;;;;5077926;28;20024;-70
2022/07/21 11:44:46;;;;;;;3.40;3.10;;;19.70;99.90;;;;;;5092427;28;20516;-70
2022/07/21 11:47:14;;;;;;;3.63;3.13;;;19.90;99.90;;;;;;5084944;28;20392;-71
2022/07/21 11:49:42;;;;;;;2.35;2.15;;;20.00;99.90;;;;;;5072088;28;20488;-72
2022/07/21 11:52:13;;;;;;;2.97;2.67;;;19.90;99.90;;;;;;5099375;28;20639;-71
2022/07/21 11:54:48;;;;;;;4.45;2.13;;;19.80;99.90;;;;;;5084927;28;20016;-71
2022/07/21 11:57:15;;;;;;;2.50;2.10;;;19.80;99.90;;;;;;5072076;28;20032;-71
2022/07/21 11:59:42;;;;;;;6.60;3.17;;;19.80;99.90;;;;;;5083082;28;20036;-70
2022/07/21 12:02:17;;;;;;;3.97;2.10;;;19.70;99.90;;;;;;5080141;28;20119;-71
2022/07/21 12:04:51;;;;;;;2.40;2.20;;;19.60;99.90;;;;;;5082739;28;20020;-71
2022/07/21 12:07:24;;;;;;;2.90;1.90;;;19.60;99.90;;;;;;5082160;28;20039;-71
2022/07/21 12:09:56;;;;;;;2.78;2.28;;;19.60;99.90;;;;;;5082187;28;20052;-71
2022/07/21 12:12:30;;;;;;;3.00;2.13;;;19.70;99.90;;;;;;5082198;28;20498;-71
2022/07/21 12:14:56;;;;;;;2.80;2.05;;;19.80;99.90;;;;;;5091628;28;20032;-71
2022/07/21 12:18:01;;;;;;;2.47;2.10;;;19.80;99.90;;;;;;5077320;28;20537;-71
2022/07/21 12:20:33;;;;;;;6.70;2.28;;;19.80;99.90;;;;;;5072763;28;20040;-71
2022/07/21 12:23:01;;;;;;;3.80;2.40;;;19.90;99.90;;;;;;5074982;28;20021;-72
2022/07/21 12:25:39;;;;;;;2.97;2.42;;;19.90;99.90;;;;;;5076022;28;20028;-72
2022/07/21 12:28:06;;;;;;;3.47;2.17;;;19.90;99.90;;;;;;5076792;28;20078;-72
2022/07/21 12:30:46;;;;;;;3.55;1.92;;;19.80;99.90;;;;;;5075894;28;20048;-71
2022/07/21 12:33:18;;;;;;;2.78;1.85;;;19.70;99.90;;;;;;5078745;28;20094;-71
2022/07/21 12:35:56;;;;;;;3.55;2.47;;;19.70;99.90;;;;;;5087680;28;20033;-73
2022/07/21 12:38:21;;;;;;;3.30;1.88;;;19.60;99.90;;;;;;5081464;28;20472;-72